»·PEaware :: N6999J KMYF-KSNA

N6999J :: KMYF-KSNA

FLIGHT INFORMATION

Flight Status: Arrived
Operator: Privately registered:
United States
More flights under this callsign
Pilot: Bryan N. (13862)
Aircraft: PIPER PA-28R-201 ARROW
(P28R)
More flights by this aircraft type
Origin: KMYF Montgomery
United States
Destination: KSNA John Wayne-Orange Co
United States
More flights between these airports :: More routes between these airports
Route: +OCN V23 SLI
File this flight plan on PilotEdge
Remarks: Simulating 1 / 2SM OVC002
Altitude:
(Current/Filed)
6,000ft
Speed:
(Current/Filed)
145kts
Departed: 11-Jan-18 08:14 PM
Arrived: 11-Jan-18 09:16 PM
Distance/Time
Traveled:
63nm/1:02
Distance/Time
To Go:
Arrived

Flight Plot

Page will automatically refresh every two minutes.


Map Options




Map Legend


Flown Route
Filed Route
Departure Airport
Arrival Airport
Navaid (VOR, NDB)
Fix

Horizontal Profiles

Position Reports

Time Latitude Longitude Heading Altitude Ground
Speed
11-Jan-18 19:47 32.813429 -117.140198 201 430ft 0kts
11-Jan-18 19:48 32.813429 -117.140198 201 430ft 0kts
11-Jan-18 19:49 32.813429 -117.140198 201 430ft 0kts
11-Jan-18 19:50 32.813429 -117.140198 201 430ft 0kts
11-Jan-18 19:51 32.813429 -117.140198 201 430ft 0kts
11-Jan-18 19:52 32.813429 -117.140198 201 430ft 0kts
11-Jan-18 19:53 32.813429 -117.140198 201 430ft 0kts
11-Jan-18 19:54 32.813429 -117.140198 201 430ft 0kts
11-Jan-18 19:55 32.813429 -117.140198 201 430ft 0kts
11-Jan-18 19:56 32.813429 -117.140198 201 430ft 0kts
11-Jan-18 19:57 32.813429 -117.140198 201 430ft 0kts
11-Jan-18 19:58 32.813429 -117.140198 201 430ft 0kts
11-Jan-18 19:59 32.813429 -117.140198 201 430ft 0kts
11-Jan-18 20:00 32.813429 -117.140198 201 430ft 0kts
11-Jan-18 20:01 32.813429 -117.140198 201 430ft 0kts
11-Jan-18 20:02 32.813427 -117.140199 201 430ft 0kts
11-Jan-18 20:03 32.813424 -117.140200 201 430ft 0kts
11-Jan-18 20:04 32.813421 -117.140202 201 430ft 0kts
11-Jan-18 20:05 32.813418 -117.140203 201 430ft 0kts
11-Jan-18 20:06 32.813415 -117.140205 201 430ft 0kts
11-Jan-18 20:07 32.813327 -117.140036 22 430ft 6kts
11-Jan-18 20:08 32.813516 -117.139941 21 430ft 0kts
11-Jan-18 20:09 32.813520 -117.139940 21 430ft 0kts
11-Jan-18 20:10 32.813717 -117.139012 112 430ft 9kts
11-Jan-18 20:11 32.812577 -117.136065 114 430ft 9kts
11-Jan-18 20:12 32.811555 -117.133351 97 430ft 7kts
11-Jan-18 20:13 32.812229 -117.131895 294 430ft 0kts
11-Jan-18 20:14 32.812231 -117.131899 294 430ft 0kts
11-Jan-18 20:15 32.812233 -117.131904 294 430ft 0kts
11-Jan-18 20:16 32.812235 -117.131910 294 430ft 0kts
11-Jan-18 20:17 32.812236 -117.131912 294 430ft 0kts
11-Jan-18 20:18 32.812237 -117.131914 294 430ft 0kts
11-Jan-18 20:19 32.812238 -117.131917 294 430ft 0kts
11-Jan-18 20:20 32.814334 -117.134962 294 430ft 59kts
11-Jan-18 20:21 32.823071 -117.164388 278 1134ft 111kts
11-Jan-18 20:22 32.827249 -117.201050 278 2054ft 112kts
11-Jan-18 20:23 32.831425 -117.237642 280 2898ft 114kts
11-Jan-18 20:24 32.835729 -117.274830 277 3690ft 114kts
11-Jan-18 20:25 32.839383 -117.312206 279 4450ft 113kts
11-Jan-18 20:26 32.845658 -117.348603 316 5168ft 111kts
11-Jan-18 20:27 32.874939 -117.356761 352 5847ft 111kts
11-Jan-18 20:28 32.907949 -117.362672 351 6116ft 131kts
11-Jan-18 20:29 32.945131 -117.369485 352 6190ft 138kts
11-Jan-18 20:30 32.984864 -117.374844 352 5955ft 148kts
11-Jan-18 20:31 33.025212 -117.382175 350 5908ft 147kts
11-Jan-18 20:32 33.064661 -117.389785 351 6005ft 140kts
11-Jan-18 20:33 33.103884 -117.396000 352 6016ft 142kts
11-Jan-18 20:34 33.143575 -117.402752 351 6052ft 140kts
11-Jan-18 20:35 33.182281 -117.410293 352 6113ft 141kts
11-Jan-18 20:36 33.221292 -117.416428 353 6153ft 143kts
11-Jan-18 20:37 33.256210 -117.436050 316 6199ft 142kts
11-Jan-18 20:38 33.283077 -117.472483 309 6067ft 149kts
11-Jan-18 20:39 33.312017 -117.507279 319 6041ft 146kts
11-Jan-18 20:40 33.342081 -117.540504 317 5982ft 147kts
11-Jan-18 20:41 33.371908 -117.574007 318 5954ft 146kts
11-Jan-18 20:42 33.401480 -117.607297 317 5975ft 143kts
11-Jan-18 20:43 33.430473 -117.640263 319 6023ft 144kts
11-Jan-18 20:44 33.458614 -117.673891 315 6098ft 143kts
11-Jan-18 20:45 33.467992 -117.718956 266 5908ft 155kts
11-Jan-18 20:46 33.462826 -117.770768 262 5524ft 160kts
11-Jan-18 20:47 33.457431 -117.824077 268 4902ft 161kts
11-Jan-18 20:48 33.456295 -117.877619 271 4283ft 158kts
11-Jan-18 20:49 33.456919 -117.929092 271 3978ft 146kts
11-Jan-18 20:50 33.464837 -117.974633 326 3544ft 148kts
11-Jan-18 20:51 33.503542 -117.979742 19 3056ft 132kts
11-Jan-18 20:52 33.536170 -117.959134 27 2347ft 132kts
11-Jan-18 20:53 33.568018 -117.937800 28 1608ft 125kts
11-Jan-18 20:54 33.594457 -117.920337 28 1492ft 99kts
11-Jan-18 20:55 33.617465 -117.905807 27 1033ft 90kts
11-Jan-18 20:56 33.639038 -117.892008 26 663ft 83kts
11-Jan-18 20:57 33.660316 -117.878633 22 537ft 94kts
11-Jan-18 20:58 33.666788 -117.901655 249 1569ft 100kts
11-Jan-18 20:59 33.658275 -117.929158 248 2368ft 110kts
11-Jan-18 21:00 33.644787 -117.972575 252 3037ft 137kts
11-Jan-18 21:01 33.631373 -118.017846 252 3032ft 146kts
11-Jan-18 21:02 33.626514 -118.056037 303 3125ft 142kts
11-Jan-18 21:03 33.666381 -118.046920 30 3168ft 139kts
11-Jan-18 21:04 33.701295 -118.023040 30 3056ft 146kts
11-Jan-18 21:05 33.730632 -118.003706 28 3091ft 143kts
11-Jan-18 21:06 33.766572 -117.981827 28 3078ft 144kts
11-Jan-18 21:07 33.801416 -117.958319 39 3088ft 144kts
11-Jan-18 21:08 33.832193 -117.926747 40 3022ft 148kts
11-Jan-18 21:09 33.863172 -117.894853 40 2995ft 145kts
11-Jan-18 21:10 33.882117 -117.853574 70 3016ft 144kts
11-Jan-18 21:11 33.895408 -117.807699 68 2999ft 146kts
11-Jan-18 21:12 33.908870 -117.761713 80 3000ft 145kts
11-Jan-18 21:13 33.877364 -117.743257 178 3022ft 140kts
11-Jan-18 21:14 33.842038 -117.762486 209 2923ft 138kts
11-Jan-18 21:15 33.812271 -117.782599 208 2799ft 109kts
11-Jan-18 21:16 33.787387 -117.798007 207 2496ft 96kts
11-Jan-18 21:17 33.764126 -117.812434 208 1957ft 92kts
11-Jan-18 21:18 33.741687 -117.826944 207 1394ft 90kts
11-Jan-18 21:19 33.719509 -117.840838 207 902ft 89kts
11-Jan-18 21:20 33.697717 -117.854729 207 464ft 87kts
11-Jan-18 21:21 33.677977 -117.867368 206 62ft 59kts
11-Jan-18 21:22 33.670696 -117.871979 207 59ft 21kts
11-Jan-18 21:23 33.669603 -117.870757 39 59ft 11kts
11-Jan-18 21:24 33.670935 -117.869141 62 59ft 0kts
11-Jan-18 21:25 33.670935 -117.869141 62 59ft 0kts

Navigation Log

Ident Type
Flight plan parsing failed, navigation log unavailable